createdAt,value
2022-11-13T00:02:36.079Z,9.98
2022-11-13T00:05:22.534Z,8.55
2022-11-13T00:08:07.943Z,9.40
2022-11-13T00:11:00.554Z,9.43
2022-11-13T00:13:46.437Z,10.93
2022-11-13T00:16:31.917Z,10.07
2022-11-13T00:19:17.519Z,9.60
2022-11-13T00:22:02.684Z,9.90
2022-11-13T00:24:48.104Z,10.07
2022-11-13T00:27:33.537Z,9.68
2022-11-13T00:30:19.637Z,10.43
2022-11-13T00:33:04.827Z,10.68
2022-11-13T00:35:50.334Z,10.43
2022-11-13T00:38:36.042Z,10.32
2022-11-13T00:41:23.995Z,10.13
2022-11-13T00:44:09.548Z,8.80
2022-11-13T00:46:55.031Z,9.95
2022-11-13T00:49:40.525Z,9.20
2022-11-13T00:52:25.965Z,8.20
2022-11-13T00:55:11.300Z,9.10
2022-11-13T00:57:56.784Z,9.90
2022-11-13T01:00:43.861Z,8.65
2022-11-13T01:03:29.010Z,8.88
2022-11-13T01:06:21.238Z,9.52
2022-11-13T01:09:06.558Z,8.75
2022-11-13T01:11:51.963Z,10.20
2022-11-13T01:14:37.343Z,9.25
2022-11-13T01:17:22.883Z,8.07
2022-11-13T01:20:08.957Z,8.70
2022-11-13T01:22:54.391Z,8.77
2022-11-13T01:25:39.770Z,8.45
2022-11-13T01:28:25.457Z,9.15
2022-11-13T01:31:16.640Z,8.45
2022-11-13T01:34:01.922Z,9.27
2022-11-13T01:36:48.445Z,9.00
2022-11-13T01:39:33.912Z,9.50
2022-11-13T01:42:19.420Z,8.60
2022-11-13T01:45:44.786Z,8.75
2022-11-13T01:51:30.564Z,8.77
2022-11-13T01:54:31.768Z,8.50
2022-11-13T01:57:18.867Z,8.30
2022-11-13T02:00:08.381Z,7.25
2022-11-13T02:02:54.077Z,7.80
2022-11-13T02:05:39.796Z,9.43
2022-11-13T02:08:25.653Z,8.85
2022-11-13T02:11:12.671Z,8.07
2022-11-13T02:13:59.184Z,8.20
2022-11-13T02:16:48.112Z,7.45
2022-11-13T02:19:38.048Z,7.70
2022-11-13T02:22:29.081Z,8.60
2022-11-13T02:25:14.570Z,7.93
2022-11-13T02:27:59.838Z,7.78
2022-11-13T02:30:45.006Z,8.20
2022-11-13T02:33:32.607Z,9.52
2022-11-13T02:36:20.091Z,9.73
2022-11-13T02:39:09.173Z,8.60
2022-11-13T02:41:54.404Z,8.02
2022-11-13T02:44:39.849Z,8.93
2022-11-13T02:47:25.415Z,8.32
2022-11-13T02:50:11.807Z,9.50
2022-11-13T02:52:57.269Z,8.63
2022-11-13T02:55:42.742Z,8.55
2022-11-13T02:58:28.625Z,8.07
2022-11-13T03:01:14.294Z,8.18
2022-11-13T03:04:00.602Z,7.70
2022-11-13T03:06:46.068Z,8.70
2022-11-13T03:09:31.481Z,8.10
2022-11-13T03:12:17.333Z,8.07
2022-11-13T03:15:02.754Z,8.98
2022-11-13T03:17:48.338Z,7.90
2022-11-13T03:20:36.993Z,8.07
2022-11-13T03:23:22.145Z,8.90
2022-11-13T03:26:11.324Z,8.88
2022-11-13T03:28:56.901Z,7.53
2022-11-13T03:31:42.354Z,9.50
2022-11-13T03:34:27.936Z,8.40
2022-11-13T03:37:13.439Z,7.47
2022-11-13T03:39:58.910Z,8.85
2022-11-13T03:42:44.483Z,8.70
2022-11-13T03:45:29.897Z,7.85
2022-11-13T03:48:16.456Z,7.50
2022-11-13T03:51:02.657Z,7.50
2022-11-13T03:53:48.041Z,8.75
2022-11-13T03:56:33.561Z,7.90
2022-11-13T03:59:18.978Z,7.70
2022-11-13T04:02:04.580Z,7.15
2022-11-13T04:04:50.218Z,8.32
2022-11-13T04:07:35.626Z,7.88
2022-11-13T04:10:21.238Z,8.40
2022-11-13T04:13:06.688Z,8.43
2022-11-13T04:15:52.230Z,8.82
2022-11-13T04:18:37.875Z,10.05
2022-11-13T04:21:23.274Z,8.75
2022-11-13T04:24:08.811Z,8.50
2022-11-13T04:26:54.132Z,7.68
2022-11-13T04:29:39.775Z,7.18
2022-11-13T04:32:25.364Z,6.57
2022-11-13T04:35:11.390Z,7.97
2022-11-13T04:37:56.676Z,8.48
2022-11-13T04:40:42.341Z,7.95
2022-11-13T04:43:27.755Z,8.20
2022-11-13T04:46:13.260Z,7.18
2022-11-13T04:48:58.807Z,9.13
2022-11-13T04:51:44.163Z,8.27
2022-11-13T04:54:31.598Z,7.60
2022-11-13T04:57:17.259Z,7.18
2022-11-13T05:00:08.891Z,8.13
2022-11-13T05:02:56.301Z,8.07
2022-11-13T05:05:41.563Z,7.22
2022-11-13T05:08:27.279Z,7.95
2022-11-13T05:11:13.435Z,8.05
2022-11-13T05:14:03.180Z,8.13
2022-11-13T05:16:50.078Z,8.93
2022-11-13T05:19:35.710Z,7.50
2022-11-13T05:22:21.140Z,7.47
2022-11-13T05:25:07.064Z,7.32
2022-11-13T05:27:52.505Z,8.18
2022-11-13T05:30:38.177Z,7.63
2022-11-13T05:33:23.694Z,6.97
2022-11-13T05:36:15.112Z,8.00
2022-11-13T05:39:00.467Z,6.95
2022-11-13T05:41:45.687Z,8.35
2022-11-13T05:44:31.135Z,8.32
2022-11-13T05:47:16.561Z,7.40
2022-11-13T05:50:02.084Z,7.60
2022-11-13T05:52:48.051Z,7.38
2022-11-13T05:55:33.518Z,7.88
2022-11-13T05:58:18.953Z,8.35
2022-11-13T06:01:11.423Z,7.82
2022-11-13T06:03:57.683Z,7.38
2022-11-13T06:06:43.515Z,7.88
2022-11-13T06:09:29.066Z,8.60
2022-11-13T06:12:14.392Z,7.47
2022-11-13T06:14:59.772Z,7.32
2022-11-13T06:17:48.333Z,6.95
2022-11-13T06:20:37.281Z,8.32
2022-11-13T06:23:22.579Z,8.05
2022-11-13T06:26:14.462Z,7.75
2022-11-13T06:29:01.019Z,7.20
2022-11-13T06:31:46.340Z,8.43
2022-11-13T06:34:31.847Z,8.85
2022-11-13T06:37:17.372Z,7.85
2022-11-13T06:40:02.954Z,7.20
2022-11-13T06:42:48.427Z,8.02
2022-11-13T06:45:34.019Z,8.55
2022-11-13T06:48:19.567Z,7.43
2022-11-13T06:51:07.256Z,9.15
2022-11-13T06:53:52.758Z,9.02
2022-11-13T06:56:43.615Z,9.48
2022-11-13T06:59:28.643Z,7.57
2022-11-13T07:02:14.087Z,8.65
2022-11-13T07:04:59.561Z,8.48
2022-11-13T07:07:45.204Z,7.85
2022-11-13T07:10:30.684Z,8.15
2022-11-13T07:13:16.052Z,8.90
2022-11-13T07:16:15.932Z,8.02
2022-11-13T07:19:02.539Z,8.27
2022-11-13T07:21:48.042Z,8.10
2022-11-13T07:24:33.686Z,6.50
2022-11-13T07:27:19.000Z,6.82
2022-11-13T07:30:05.213Z,6.72
2022-11-13T07:32:50.746Z,7.55
2022-11-13T07:35:36.422Z,6.15
2022-11-13T07:38:21.934Z,7.13
2022-11-13T07:41:07.786Z,7.45
2022-11-13T07:43:53.240Z,6.35
2022-11-13T07:46:38.641Z,7.47
2022-11-13T07:49:24.110Z,5.95
2022-11-13T07:52:09.735Z,7.20
2022-11-13T07:54:55.142Z,6.53
2022-11-13T07:57:40.719Z,7.10
2022-11-13T08:00:27.563Z,6.95
2022-11-13T08:03:15.303Z,7.50
2022-11-13T08:06:05.683Z,6.32
2022-11-13T08:08:50.963Z,6.85
2022-11-13T08:11:36.690Z,6.60
2022-11-13T08:14:21.949Z,6.72
2022-11-13T08:17:07.265Z,7.00
2022-11-13T08:19:52.893Z,6.95
2022-11-13T08:22:38.352Z,7.38
2022-11-13T08:25:23.664Z,6.85
2022-11-13T08:28:13.303Z,6.38
2022-11-13T08:30:59.280Z,5.80
2022-11-13T08:33:44.704Z,6.95
2022-11-13T08:36:30.114Z,6.80
2022-11-13T08:39:16.655Z,6.90
2022-11-13T08:42:03.652Z,7.47
2022-11-13T08:44:49.182Z,6.70
2022-11-13T08:47:34.634Z,7.28
2022-11-13T08:50:20.392Z,7.28
2022-11-13T08:53:06.332Z,7.32
2022-11-13T08:55:52.085Z,6.97
2022-11-13T08:58:37.238Z,7.78
2022-11-13T09:01:23.348Z,6.28
2022-11-13T09:04:08.842Z,7.15
2022-11-13T09:06:54.724Z,7.53
2022-11-13T09:09:40.117Z,7.63
2022-11-13T09:12:25.755Z,7.15
2022-11-13T09:15:12.483Z,6.75
2022-11-13T09:18:02.642Z,6.03
2022-11-13T09:20:48.248Z,7.35
2022-11-13T09:23:34.484Z,8.13
2022-11-13T09:26:19.786Z,7.10
2022-11-13T09:29:05.642Z,6.53
2022-11-13T09:31:50.818Z,6.47
2022-11-13T09:34:36.361Z,6.72
2022-11-13T09:37:21.971Z,6.97
2022-11-13T09:40:11.004Z,6.53
2022-11-13T09:42:56.503Z,6.93
2022-11-13T09:45:42.336Z,6.57
2022-11-13T09:48:39.252Z,7.32
2022-11-13T09:51:31.133Z,6.75
2022-11-13T09:54:17.090Z,6.78
2022-11-13T09:57:42.882Z,7.25
2022-11-13T10:00:29.441Z,6.55
2022-11-13T10:07:00.221Z,7.05
2022-11-13T10:09:55.413Z,6.93
2022-11-13T10:12:41.039Z,5.60
2022-11-13T10:15:27.041Z,6.50
2022-11-13T10:18:20.216Z,6.15
2022-11-13T10:21:31.765Z,5.60
2022-11-13T10:24:24.989Z,7.00
2022-11-13T10:27:12.539Z,5.07
2022-11-13T10:29:57.834Z,5.78
2022-11-13T10:32:44.892Z,5.68
2022-11-13T10:35:45.584Z,5.65
2022-11-13T10:38:44.698Z,5.35
2022-11-13T10:41:30.933Z,5.88
2022-11-13T10:44:23.233Z,5.88
2022-11-13T10:47:42.468Z,5.85
2022-11-13T10:50:30.569Z,5.95
2022-11-13T10:53:18.185Z,6.45
2022-11-13T10:56:13.704Z,5.30
2022-11-13T10:59:03.247Z,5.97
2022-11-13T11:01:50.069Z,6.75
2022-11-13T11:04:35.433Z,6.10
2022-11-13T11:07:23.691Z,6.10
2022-11-13T11:11:02.353Z,6.38
2022-11-13T11:13:48.722Z,5.85
2022-11-13T11:16:34.149Z,5.75
2022-11-13T11:19:25.273Z,5.88
2022-11-13T11:22:18.216Z,5.38
2022-11-13T11:25:29.921Z,5.13
2022-11-13T11:28:39.449Z,5.20
2022-11-13T11:31:37.817Z,5.47
2022-11-13T11:34:36.314Z,6.50
2022-11-13T11:37:27.093Z,5.88
2022-11-13T11:40:20.177Z,5.05
2022-11-13T11:43:14.321Z,6.05
2022-11-13T11:46:00.018Z,5.30
2022-11-13T11:48:45.580Z,5.97
2022-11-13T11:51:59.908Z,5.40
2022-11-13T11:55:07.392Z,6.40
2022-11-13T11:58:18.718Z,5.07
2022-11-13T12:01:12.636Z,4.38
2022-11-13T12:04:35.556Z,5.70
2022-11-13T12:07:33.013Z,6.13
2022-11-13T12:10:37.243Z,5.65
2022-11-13T12:14:05.965Z,6.10
2022-11-13T12:17:00.265Z,5.93
2022-11-13T12:20:25.978Z,5.28
2022-11-13T12:23:29.816Z,4.32
2022-11-13T12:26:51.993Z,4.30
2022-11-13T12:30:10.463Z,4.43
2022-11-13T12:33:20.493Z,4.07
2022-11-13T12:36:09.215Z,3.92
2022-11-13T12:39:06.498Z,3.67
2022-11-13T12:42:03.849Z,4.03
2022-11-13T12:45:00.352Z,3.85
2022-11-13T12:47:49.500Z,4.15
2022-11-13T12:50:35.373Z,3.72
2022-11-13T12:53:29.576Z,4.15
2022-11-13T12:56:35.869Z,4.05
2022-11-13T12:59:31.031Z,4.22
2022-11-13T13:02:41.651Z,3.53
2022-11-13T13:05:58.157Z,3.65
2022-11-13T13:09:12.758Z,4.10
2022-11-13T13:12:15.371Z,3.92
2022-11-13T13:15:28.033Z,2.95
2022-11-13T13:18:16.786Z,3.30
2022-11-13T13:21:08.441Z,3.17
2022-11-13T13:23:54.026Z,2.75
2022-11-13T13:26:47.165Z,3.33
2022-11-13T13:29:33.592Z,3.20
2022-11-13T13:32:35.927Z,3.58
2022-11-13T13:35:31.313Z,3.05
2022-11-13T13:38:28.343Z,3.58
2022-11-13T13:41:26.928Z,3.53
2022-11-13T13:44:30.321Z,3.08
2022-11-13T13:47:31.863Z,3.05
2022-11-13T13:50:21.490Z,3.88
2022-11-13T13:53:08.994Z,4.32
2022-11-13T13:55:56.391Z,3.50
2022-11-13T13:58:42.387Z,4.57
2022-11-13T14:01:30.782Z,4.15
2022-11-13T14:04:21.810Z,4.03
2022-11-13T14:07:27.078Z,4.07
2022-11-13T14:10:20.121Z,3.28
2022-11-13T14:13:05.492Z,3.60
2022-11-13T14:16:04.088Z,3.50
2022-11-13T14:18:49.607Z,3.97
2022-11-13T14:21:35.577Z,3.65
2022-11-13T14:24:47.325Z,4.00
2022-11-13T14:27:32.900Z,3.85
2022-11-13T14:30:30.352Z,5.10
2022-11-13T14:33:21.338Z,4.13
2022-11-13T14:36:07.188Z,4.55
2022-11-13T14:38:52.797Z,4.82
2022-11-13T14:41:49.176Z,4.40
2022-11-13T14:44:35.288Z,3.85
2022-11-13T14:47:28.614Z,5.55
2022-11-13T14:50:32.632Z,6.60
2022-11-13T14:53:34.270Z,4.47
2022-11-13T14:56:19.245Z,4.40
2022-11-13T14:59:10.063Z,4.90
2022-11-13T15:01:57.556Z,4.78
2022-11-13T15:04:43.181Z,4.38
2022-11-13T15:07:30.850Z,4.38
2022-11-13T15:10:20.077Z,4.32
2022-11-13T15:13:13.482Z,4.68
2022-11-13T15:15:58.994Z,5.60
2022-11-13T15:18:52.118Z,5.20
2022-11-13T15:21:37.422Z,5.65
2022-11-13T15:24:23.187Z,5.03
2022-11-13T15:27:18.366Z,5.15
2022-11-13T15:30:04.394Z,5.45
2022-11-13T15:32:53.782Z,5.15
2022-11-13T15:35:38.885Z,5.15
2022-11-13T15:38:24.328Z,5.75
2022-11-13T15:41:15.670Z,6.18
2022-11-13T15:44:04.672Z,6.22
2022-11-13T15:46:50.129Z,5.90
2022-11-13T15:49:35.658Z,5.60
2022-11-13T15:52:22.361Z,5.55
2022-11-13T15:55:20.855Z,6.60
2022-11-13T15:58:06.025Z,5.88
2022-11-13T16:00:51.527Z,6.55
2022-11-13T16:03:39.950Z,5.70
2022-11-13T16:06:25.628Z,6.43
2022-11-13T16:09:13.873Z,5.80
2022-11-13T16:12:01.412Z,6.70
2022-11-13T16:14:47.262Z,5.88
2022-11-13T16:17:38.514Z,6.63
2022-11-13T16:20:24.728Z,7.07
2022-11-13T16:23:17.009Z,7.78
2022-11-13T16:26:04.478Z,7.88
2022-11-13T16:29:12.805Z,6.85
2022-11-13T16:31:57.556Z,8.70
2022-11-13T16:34:44.008Z,11.68
2022-11-13T16:37:29.141Z,10.55
2022-11-13T16:40:23.655Z,9.48
2022-11-13T16:43:10.218Z,10.30
2022-11-13T16:45:55.509Z,10.10
2022-11-13T16:48:41.797Z,10.20
2022-11-13T16:51:27.380Z,9.48
2022-11-13T16:54:13.215Z,9.23
2022-11-13T16:56:59.057Z,8.30
2022-11-13T17:10:59.881Z,10.80
2022-11-13T17:13:56.118Z,10.07
2022-11-13T17:16:41.742Z,10.10
2022-11-13T17:19:27.779Z,11.52
2022-11-13T17:22:14.400Z,9.50
2022-11-13T17:24:59.576Z,9.85
2022-11-13T17:27:45.113Z,10.02
2022-11-13T17:30:30.721Z,10.35
2022-11-13T17:33:17.059Z,10.75
2022-11-13T17:36:03.393Z,10.57
2022-11-13T17:38:48.994Z,11.15
2022-11-13T17:41:34.944Z,9.52
2022-11-13T17:44:20.546Z,10.38
2022-11-13T17:47:10.186Z,11.23
2022-11-13T17:49:56.081Z,10.52
2022-11-13T17:52:41.834Z,12.13
2022-11-13T17:55:27.116Z,9.85
2022-11-13T17:58:12.740Z,11.10
2022-11-13T18:01:07.022Z,10.82
2022-11-13T18:06:44.024Z,9.00
2022-11-13T18:09:29.461Z,10.68
2022-11-13T18:12:14.976Z,9.23
2022-11-13T18:15:00.411Z,9.27
2022-11-13T18:17:45.898Z,8.65
2022-11-13T18:20:32.121Z,8.90
2022-11-13T18:23:17.284Z,9.43
2022-11-13T18:26:11.414Z,9.88
2022-11-13T18:28:57.564Z,8.85
2022-11-13T18:31:43.181Z,8.60
2022-11-13T18:34:29.673Z,9.68
2022-11-13T18:37:15.496Z,11.07
2022-11-13T18:40:01.887Z,10.43
2022-11-13T18:42:49.272Z,10.65
2022-11-13T18:45:35.273Z,9.48
2022-11-13T18:48:20.485Z,10.70
2022-11-13T18:51:16.610Z,11.73
2022-11-13T18:54:09.412Z,9.82
2022-11-13T18:56:55.283Z,9.60
2022-11-13T18:59:41.038Z,9.25
2022-11-13T19:02:28.466Z,9.98
2022-11-13T19:05:14.016Z,9.32
2022-11-13T19:07:59.583Z,10.25
2022-11-13T19:10:45.334Z,9.40
2022-11-13T19:13:30.986Z,10.30
2022-11-13T19:16:19.357Z,10.02
2022-11-13T19:19:20.335Z,8.77
2022-11-13T19:22:05.886Z,9.75
2022-11-13T19:24:51.648Z,9.10
2022-11-13T19:27:36.927Z,8.30
2022-11-13T19:30:22.928Z,8.35
2022-11-13T19:33:08.676Z,9.15
2022-11-13T19:35:55.587Z,9.70
2022-11-13T19:38:44.541Z,8.77
2022-11-13T19:41:30.394Z,9.43
2022-11-13T19:44:15.671Z,9.75
2022-11-13T19:47:01.487Z,9.07
2022-11-13T19:49:46.807Z,10.05
2022-11-13T19:52:32.294Z,9.80
2022-11-13T19:55:17.913Z,9.90
2022-11-13T19:58:03.620Z,8.55
2022-11-13T20:00:49.878Z,9.77
2022-11-13T20:03:35.529Z,8.50
2022-11-13T20:06:22.716Z,8.73
2022-11-13T20:09:08.404Z,8.30
2022-11-13T20:11:53.917Z,7.65
2022-11-13T20:14:39.464Z,11.30
2022-11-13T20:17:25.053Z,9.73
2022-11-13T20:20:10.718Z,8.15
2022-11-13T20:22:56.238Z,8.05
2022-11-13T20:25:41.397Z,8.43
2022-11-13T20:28:29.109Z,9.48
2022-11-13T20:31:20.741Z,7.88
2022-11-13T20:34:06.741Z,8.88
2022-11-13T20:36:51.912Z,8.88
2022-11-13T20:39:38.879Z,7.32
2022-11-13T20:42:24.570Z,7.25
2022-11-13T20:45:10.313Z,8.00
2022-11-13T20:47:55.722Z,7.00
2022-11-13T20:50:41.240Z,7.47
2022-11-13T20:53:26.816Z,8.02
2022-11-13T20:56:13.174Z,8.05
2022-11-13T20:59:00.216Z,8.13
2022-11-13T21:01:45.753Z,6.78
2022-11-13T21:04:31.322Z,6.03
2022-11-13T21:07:17.012Z,6.32
2022-11-13T21:10:02.701Z,6.82
2022-11-13T21:12:48.132Z,6.82
2022-11-13T21:15:36.639Z,6.55
2022-11-13T21:18:22.671Z,6.05
2022-11-13T21:21:10.199Z,6.75
2022-11-13T21:23:57.220Z,7.13
2022-11-13T21:26:42.526Z,6.43
2022-11-13T21:29:28.042Z,7.25
2022-11-13T21:32:13.686Z,6.55
2022-11-13T21:35:00.162Z,7.93
2022-11-13T21:37:45.569Z,6.03
2022-11-13T21:40:33.162Z,6.95
2022-11-13T21:43:19.565Z,6.70
2022-11-13T21:46:06.075Z,6.00
2022-11-13T21:49:06.081Z,6.40
2022-11-13T21:51:52.176Z,7.22
2022-11-13T21:54:37.703Z,6.53
2022-11-13T21:57:24.138Z,6.75
2022-11-13T22:00:11.001Z,5.97
2022-11-13T22:02:56.396Z,7.03
2022-11-13T22:05:41.972Z,6.32
2022-11-13T22:08:30.665Z,7.85
2022-11-13T22:11:16.822Z,6.22
2022-11-13T22:14:03.530Z,7.22
2022-11-13T22:16:49.284Z,7.18
2022-11-13T22:19:36.360Z,7.05
2022-11-13T22:22:21.712Z,7.05
2022-11-13T22:25:07.693Z,6.57
2022-11-13T22:27:54.114Z,7.32
2022-11-13T22:30:39.702Z,6.88
2022-11-13T22:33:34.076Z,6.90
2022-11-13T22:36:22.154Z,6.63
2022-11-13T22:39:07.749Z,6.63
2022-11-13T22:41:54.292Z,6.18
2022-11-13T22:44:54.753Z,7.60
2022-11-13T22:47:41.667Z,6.95
2022-11-13T22:50:26.885Z,7.03
2022-11-13T22:53:14.605Z,6.75
2022-11-13T22:56:05.798Z,7.32
2022-11-13T22:58:53.200Z,6.13
2022-11-13T23:01:42.259Z,6.72
2022-11-13T23:04:27.783Z,6.95
2022-11-13T23:07:13.147Z,7.18
2022-11-13T23:09:58.546Z,8.23
2022-11-13T23:12:45.115Z,7.07
2022-11-13T23:15:30.472Z,7.97
2022-11-13T23:18:16.105Z,7.90
2022-11-13T23:21:01.817Z,7.70
2022-11-13T23:23:47.876Z,7.75
2022-11-13T23:26:33.366Z,7.15
2022-11-13T23:29:19.158Z,7.07
2022-11-13T23:32:05.441Z,7.60
2022-11-13T23:34:59.072Z,7.38
2022-11-13T23:40:30.305Z,6.35
2022-11-13T23:43:15.672Z,6.30
2022-11-13T23:46:02.018Z,6.95
2022-11-13T23:48:47.433Z,6.75
2022-11-13T23:51:32.883Z,6.00
2022-11-13T23:54:18.200Z,6.70
2022-11-13T23:57:03.949Z,7.63
2022-11-13T23:59:49.460Z,6.75
